• Join FlightAware (Why Join?)
  • Login
  • US Flag 
08:10AM EDT


 

Airport Tracker/Info


-or-


 

Live Flight TrackerFlight Track Log ✈ DAL3606 ✈ 04-May-2013 ✈ KATL - KIAD

Flight Track Log - Related Links

Times and Time Zones

All times are in EDT time to prevent confusion due to time zone crossing. See the DAL3606 flight status page for this flight to view local times or setup timezone preferences in your user account.

Time Position Orientation Groundspeed Altitude Reporting Facility
EDT Latitude Longitude Course Direction KTS MPH feet Rate Location/Type
08:49AM 33.6333 -84.3667 53° Northeast 173 199 3,800  Level Atlanta TRACON
08:50AM 33.6333 -84.3000 90° East 229 264 6,100 2,160 Climbing Atlanta TRACON
08:51AM 33.8788 -84.1402 54° Northeast  Level Estimated
08:51AM 33.6333 -84.2000 90° East 265 305 8,400  Level Atlanta TRACON
08:52AM 33.8742 -84.0036 92° East  Level FlightAware Approximate
08:52AM 33.6503 -84.0714 81° East 290 334 11,400  Level Atlanta Center
08:53AM 33.8696 -83.8671 92° East  Level FlightAware Approximate
08:53AM 33.7211 -83.9889 44° Northeast 310 357 12,800  Level Atlanta Center
08:54AM 33.9518 -83.7729 53° Northeast  Level Estimated
08:54AM 33.7919 -83.8964 47° Northeast 348 400 14,200  Level Atlanta Center
08:55AM 33.8650 -83.8036 47° Northeast 372 428 16,100 1,620 Climbing Atlanta Center
08:56AM 33.9378 -83.7083 47° Northeast 379 436 17,500 1,200 Climbing Atlanta Center
08:57AM 34.0022 -83.6028 54° Northeast 385 443 18,600 1,080 Climbing Atlanta Center
08:58AM 34.0686 -83.4947 53° Northeast 392 451 19,700 1,200 Climbing Atlanta Center
08:59AM 34.1347 -83.3939 52° Northeast 387 445 21,000 1,140 Climbing Atlanta Center
09:00AM 34.2011 -83.2828 54° Northeast 392 451 22,000 900 Climbing Atlanta Center
09:01AM 34.2711 -83.1742 52° Northeast 400 460 22,900 900 Climbing Atlanta Center
09:02AM 34.3392 -83.0603 54° Northeast 411 473 23,800 900 Climbing Atlanta Center
09:03AM 34.4114 -82.9436 53° Northeast 427 491 24,700 840 Climbing Atlanta Center
09:04AM 34.4750 -82.8419 53° Northeast 427 491 25,500 840 Climbing Atlanta Center
09:05AM 34.5489 -82.7247 53° Northeast 427 491 26,400 720 Climbing Atlanta Center
09:06AM 34.6250 -82.6125 50° Northeast 422 486 27,000 300 Climbing Atlanta Center
09:07AM 34.6986 -82.4825 55° Northeast 422 486 27,000  Level Atlanta Center
09:08AM 34.7700 -82.3672 53° Northeast 427 491 27,000  Level Atlanta Center
09:09AM 34.8394 -82.2522 54° Northeast 427 491 27,000  Level Atlanta Center
09:10AM 34.9086 -82.1367 54° Northeast 421 484 27,000  Level Atlanta Center
09:11AM 34.9736 -82.0311 53° Northeast 421 484 27,000  Level Atlanta Center
09:12AM 35.0425 -81.9128 55° Northeast 421 484 27,000  Level Atlanta Center
09:13AM 35.1092 -81.7867 57° Northeast 434 499 27,000  Level Atlanta Center
09:14AM 35.1736 -81.6631 57° Northeast 434 499 27,000  Level Atlanta Center
09:15AM 35.2400 -81.5389 57° Northeast 439 505 27,000  Level Atlanta Center
09:16AM 35.3103 -81.4019 58° Northeast 439 505 27,000  Level Atlanta Center
09:17AM 35.3764 -81.2750 57° Northeast 439 505 27,000  Level Atlanta Center
09:18AM 35.4422 -81.1506 57° Northeast 439 505 27,000  Level Atlanta Center
09:19AM 35.5019 -81.0336 58° Northeast 439 505 27,000  Level Atlanta Center
09:20AM 35.5678 -80.9086 57° Northeast 439 505 27,000  Level Atlanta Center
09:21AM 35.6372 -80.7756 57° Northeast 439 505 27,000  Level Atlanta Center
09:22AM 35.7006 -80.6506 58° Northeast 439 505 27,000  Level Atlanta Center
09:24AM 35.8028 -80.4503 58° Northeast 435 501 27,000  Level Washington Center
09:25AM 35.8594 -80.3386 58° Northeast 422 486 27,000  Level Washington Center
09:26AM 35.9225 -80.2192 57° Northeast 417 480 27,000  Level Washington Center
09:27AM 35.9858 -80.0944 58° Northeast 410 472 27,000  Level Washington Center
09:28AM 36.0467 -79.9747 58° Northeast 417 480 27,000  Level Washington Center
09:29AM 36.1178 -79.8500 55° Northeast 429 494 27,000  Level Washington Center
09:30AM 36.1847 -79.7303 55° Northeast 416 479 27,000  Level Washington Center
09:31AM 36.2467 -79.6228 54° Northeast 416 479 27,000  Level Washington Center
09:32AM 36.3178 -79.4922 56° Northeast 416 479 27,000  Level Washington Center
09:33AM 36.3731 -79.3969 54° Northeast 410 472 27,000  Level Washington Center
09:34AM 36.4528 -79.2536 55° Northeast 415 478 27,000 -360 Level Washington Center
09:35AM 36.5211 -79.1328 55° Northeast 423 487 26,400 -720 Descending Washington Center
09:36AM 36.5911 -79.0144 54° Northeast 423 487 25,600 -720 Descending Washington Center
09:37AM 36.6617 -78.8881 55° Northeast 433 498 25,000 -360 Descending Washington Center
09:38AM 36.7208 -78.7739 57° Northeast 433 498 25,000  Level Washington Center
09:39AM 36.7911 -78.6394 57° Northeast 428 493 25,000 -540 Level Washington Center
09:40AM 36.8589 -78.5228 54° Northeast 423 487 24,000 -1,200 Descending Washington Center
09:41AM 36.9133 -78.4208 56° Northeast 410 472 22,600 -1,020 Descending Washington Center
09:42AM 36.9808 -78.2958 56° Northeast 399 459 22,000 -360 Descending Washington Center
09:43AM 37.0419 -78.1861 55° Northeast 389 448 22,000  Level Washington Center
09:44AM 37.1347 -78.1319 25° Northeast 381 438 22,000  Level Washington Center
09:45AM 37.2281 -78.0594 32° Northeast 381 438 22,000  Level Washington Center
09:46AM 37.3256 -77.9867 31° Northeast 388 447 22,000 -360 Level Washington Center
09:47AM 37.4208 -77.9114 32° Northeast 399 459 21,300 -1,200 Descending Washington Center
09:48AM 37.5183 -77.8358 32° Northeast 399 459 19,700 -1,620 Descending Washington Center
09:49AM 37.6131 -77.7808 25° Northeast 394 453 18,200 -1,200 Descending Washington Center
09:50AM 37.7167 -77.7131 27° Northeast 379 436 17,300 -1,380 Descending Washington Center
09:51AM 37.7967 -77.6706 23° Northeast 361 415 15,500 -1,680 Descending Washington Center
09:52AM 37.8850 -77.6203 24° Northeast 355 409 14,000 -1,560 Descending Washington Center
09:53AM 37.9694 -77.5672 26° Northeast 343 395 12,500 -1,440 Descending Washington Center
09:54AM 38.0533 -77.5247 22° Northeast 330 380 11,100 -1,200 Descending Washington Center
09:55AM 38.1356 -77.4767 25° Northeast 325 374 10,100 -600 Descending Washington Center
09:56AM 38.2050 -77.4336 26° Northeast 299 344 10,000 -60 Descending Washington Center
09:57AM 38.2722 -77.3928 25° Northeast 281 323 10,000 -600 Level Washington Center
09:58AM 38.3458 -77.3575 21° North 276 318 8,900 -1,260 Descending Washington Center
09:59AM 38.4231 -77.3594 359° North 271 312 7,500 -1,500 Descending Washington Center
10:00AM 38.4981 -77.3611 359° North 271 312 5,900 -1,320 Descending Washington Center
10:01AM 38.5708 -77.3681 356° North 271 312 5,000 -1,020 Descending Washington Center
10:02AM 38.6333 -77.3667 North 254 292 4,200 -600 Descending Potomac TRACON
10:03AM 38.7000 -77.3667 360° North 252 290 4,000 -120 Descending Potomac TRACON
10:04AM 38.7667 -77.3500 11° North 262 302 4,000 -60 Level Potomac TRACON
10:05AM 38.8500 -77.3500 360° North 258 297 3,900 -540 Descending Potomac TRACON
10:06AM 38.9000 -77.3500 360° North 252 290 3,000 -540 Descending Potomac TRACON
10:06AM 38.9667 -77.3500 360° North 215 247 3,000  Level Potomac TRACON
10:07AM 39.0167 -77.3500 360° North 207 238 3,000  Level Potomac TRACON
10:08AM 39.0833 -77.3500 360° North 199 229 3,000  Level Potomac TRACON
10:09AM 39.1333 -77.3667 346° North 202 232 3,000  Level Potomac TRACON
10:10AM 39.1167 -77.4167 247° West 209 241 3,000  Level Potomac TRACON